Time;durP1;ratioP1;P1;durP2;ratioP2;P2;SDS_P1;SDS_P2;PMS_P1;PMS_P2;Temp;Humidity;BMP_temperature;BMP_pressure;BME280_temperature;BME280_humidity;BME280_pressure;Samples;Min_cycle;Max_cycle;Signal;HPM_P1;HPM_P2
2024/01/19 00:01:50;;;;;;;32.22;29.98;;;;;;;;;;5027890;28;20982;-54
2024/01/19 00:04:16;;;;;;;29.98;28.02;;;;;;;;;;5030014;28;20034;-54
2024/01/19 00:06:41;;;;;;;29.10;27.40;;;;;;;;;;5032839;28;20043;-52
2024/01/19 00:09:07;;;;;;;32.05;30.17;;;;;;;;;;5030465;28;20045;-51
2024/01/19 00:11:32;;;;;;;31.42;29.50;;;;;;;;;;5032243;28;20077;-51
2024/01/19 00:13:57;;;;;;;30.40;28.50;;;;;;;;;;5034889;28;20418;-54
2024/01/19 00:16:23;;;;;;;28.15;26.52;;;;;;;;;;5033979;28;20056;-53
2024/01/19 00:18:48;;;;;;;30.80;28.95;;;;;;;;;;5033094;28;20438;-53
2024/01/19 00:21:14;;;;;;;31.00;29.02;;;;;;;;;;5037089;28;20120;-51
2024/01/19 00:23:39;;;;;;;31.50;29.30;;;;;;;;;;5036639;28;20051;-53
2024/01/19 00:26:05;;;;;;;30.48;28.58;;;;;;;;;;5034919;28;20035;-51
2024/01/19 00:28:30;;;;;;;32.47;30.23;;;;;;;;;;5036348;28;20076;-48
2024/01/19 00:30:56;;;;;;;31.90;29.70;;;;;;;;;;5030292;28;20136;-51
2024/01/19 00:33:21;;;;;;;29.77;27.90;;;;;;;;;;5029817;28;20022;-51
2024/01/19 00:35:46;;;;;;;28.35;26.52;;;;;;;;;;5034634;28;20419;-50
2024/01/19 00:38:12;;;;;;;28.58;26.88;;;;;;;;;;5033142;28;20053;-48
2024/01/19 00:40:37;;;;;;;29.98;27.95;;;;;;;;;;5034620;28;20041;-49
2024/01/19 00:43:03;;;;;;;30.70;28.50;;;;;;;;;;5034420;28;20107;-48
2024/01/19 00:45:28;;;;;;;31.05;28.42;;;;;;;;;;5031123;28;20345;-48
2024/01/19 00:47:53;;;;;;;30.40;28.55;;;;;;;;;;5034041;28;20430;-48
2024/01/19 00:50:19;;;;;;;29.10;27.30;;;;;;;;;;5033112;28;20079;-48
2024/01/19 00:52:45;;;;;;;28.00;26.35;;;;;;;;;;5031075;28;20033;-51
2024/01/19 00:55:10;;;;;;;29.48;27.27;;;;;;;;;;5030947;28;20378;-50
2024/01/19 00:57:36;;;;;;;26.55;25.00;;;;;;;;;;5034136;28;20059;-51
2024/01/19 01:00:02;;;;;;;30.27;28.13;;;;;;;;;;5029853;28;20029;-49
2024/01/19 01:02:28;;;;;;;35.05;32.50;;;;;;;;;;5034807;28;20522;-53
2024/01/19 01:04:54;;;;;;;28.95;27.13;;;;;;;;;;5033012;28;20033;-53
2024/01/19 01:07:21;;;;;;;28.45;26.67;;;;;;;;;;5031949;28;20074;-53
2024/01/19 01:09:46;;;;;;;29.73;27.83;;;;;;;;;;5033391;28;20158;-52
2024/01/19 01:12:13;;;;;;;31.02;28.98;;;;;;;;;;5031566;28;20475;-50
2024/01/19 01:14:38;;;;;;;30.77;29.08;;;;;;;;;;5026755;28;20033;-53
2024/01/19 01:17:03;;;;;;;35.90;33.67;;;;;;;;;;5031058;28;20036;-50
2024/01/19 01:19:29;;;;;;;30.60;28.88;;;;;;;;;;5030511;28;20044;-49
2024/01/19 01:21:54;;;;;;;36.13;34.13;;;;;;;;;;5031060;28;20529;-51
2024/01/19 01:24:22;;;;;;;32.60;30.42;;;;;;;;;;5034262;28;20069;-52
2024/01/19 01:26:47;;;;;;;31.65;29.80;;;;;;;;;;5031889;28;20110;-49
2024/01/19 01:29:12;;;;;;;30.33;28.48;;;;;;;;;;5032634;28;20204;-51
2024/01/19 01:31:38;;;;;;;32.45;30.60;;;;;;;;;;5030587;28;20040;-51
2024/01/19 01:34:04;;;;;;;30.48;28.67;;;;;;;;;;5029729;28;20032;-55
2024/01/19 01:36:30;;;;;;;29.70;27.63;;;;;;;;;;5033433;28;20044;-50
2024/01/19 01:38:55;;;;;;;33.00;31.00;;;;;;;;;;5031576;28;20039;-50
2024/01/19 01:41:21;;;;;;;33.50;31.48;;;;;;;;;;5032653;28;20034;-53
2024/01/19 01:43:46;;;;;;;33.42;30.98;;;;;;;;;;5035431;28;20041;-54
2024/01/19 01:46:12;;;;;;;32.13;30.27;;;;;;;;;;5031646;28;20047;-51
2024/01/19 01:48:37;;;;;;;34.00;31.58;;;;;;;;;;5036374;28;20450;-50
2024/01/19 01:51:04;;;;;;;34.88;32.88;;;;;;;;;;5031462;28;20040;-51
2024/01/19 01:53:30;;;;;;;31.55;29.75;;;;;;;;;;5030646;28;20033;-54
2024/01/19 01:55:56;;;;;;;33.65;31.67;;;;;;;;;;5031469;28;20082;-50
2024/01/19 01:58:21;;;;;;;34.08;31.90;;;;;;;;;;5031226;28;20373;-52
2024/01/19 02:00:48;;;;;;;33.25;31.40;;;;;;;;;;5030376;28;20047;-53
2024/01/19 02:03:13;;;;;;;30.52;28.30;;;;;;;;;;5030784;28;20037;-50
2024/01/19 02:05:39;;;;;;;28.77;27.08;;;;;;;;;;5029264;28;20087;-51
2024/01/19 02:08:04;;;;;;;28.98;27.27;;;;;;;;;;5031340;28;20037;-53
2024/01/19 02:10:29;;;;;;;30.63;28.88;;;;;;;;;;5032161;28;20465;-50
2024/01/19 02:12:55;;;;;;;34.38;32.13;;;;;;;;;;5032534;28;20080;-53
2024/01/19 02:15:22;;;;;;;29.45;27.70;;;;;;;;;;5032267;28;20616;-54
2024/01/19 02:17:49;;;;;;;28.30;26.35;;;;;;;;;;5030293;28;20950;-52
2024/01/19 02:20:15;;;;;;;27.73;26.20;;;;;;;;;;5035254;28;20225;-49
2024/01/19 02:22:42;;;;;;;30.02;27.67;;;;;;;;;;5034421;28;20029;-52
2024/01/19 02:25:08;;;;;;;28.35;26.75;;;;;;;;;;5032309;28;20128;-49
2024/01/19 02:27:33;;;;;;;29.00;27.08;;;;;;;;;;5033015;28;20111;-49
2024/01/19 02:29:59;;;;;;;29.25;27.55;;;;;;;;;;5029856;28;20394;-48
2024/01/19 02:32:24;;;;;;;30.80;29.02;;;;;;;;;;5027478;28;20876;-52
2024/01/19 02:34:49;;;;;;;30.73;28.92;;;;;;;;;;5028326;28;20032;-53
2024/01/19 02:37:14;;;;;;;29.35;27.75;;;;;;;;;;5032204;28;20103;-49
2024/01/19 02:39:40;;;;;;;31.00;29.17;;;;;;;;;;5032357;28;20033;-53
2024/01/19 02:42:07;;;;;;;33.38;31.35;;;;;;;;;;5030311;28;20039;-52
2024/01/19 02:44:32;;;;;;;29.98;28.23;;;;;;;;;;5031384;28;20052;-54
2024/01/19 02:46:58;;;;;;;29.48;27.77;;;;;;;;;;5028300;28;20463;-53
2024/01/19 02:49:24;;;;;;;31.63;29.85;;;;;;;;;;5030803;28;20639;-53
2024/01/19 02:51:49;;;;;;;30.92;29.13;;;;;;;;;;5029837;28;20029;-53
2024/01/19 02:54:14;;;;;;;29.80;27.77;;;;;;;;;;5031977;28;20359;-51
2024/01/19 02:56:40;;;;;;;28.90;27.33;;;;;;;;;;5029044;28;20025;-52
2024/01/19 02:59:05;;;;;;;33.42;31.50;;;;;;;;;;5033341;28;20048;-53
2024/01/19 03:01:30;;;;;;;29.83;28.20;;;;;;;;;;5026379;28;20424;-52
2024/01/19 03:03:57;;;;;;;32.13;30.20;;;;;;;;;;5028044;28;20032;-55
2024/01/19 03:06:23;;;;;;;29.33;27.63;;;;;;;;;;5030033;28;20215;-53
2024/01/19 03:08:49;;;;;;;31.27;29.38;;;;;;;;;;5030428;28;20120;-50
2024/01/19 03:11:15;;;;;;;31.67;29.70;;;;;;;;;;5030644;28;20100;-54
2024/01/19 03:13:40;;;;;;;30.67;28.88;;;;;;;;;;5033978;28;20144;-53
2024/01/19 03:16:06;;;;;;;31.00;29.10;;;;;;;;;;5032618;28;20030;-53
2024/01/19 03:18:31;;;;;;;31.80;29.90;;;;;;;;;;5032321;28;20087;-55
2024/01/19 03:20:57;;;;;;;30.38;28.63;;;;;;;;;;5029291;28;20471;-53
2024/01/19 03:23:22;;;;;;;29.77;27.75;;;;;;;;;;5035411;28;20056;-53
2024/01/19 03:25:48;;;;;;;31.13;29.30;;;;;;;;;;5029039;28;20305;-52
2024/01/19 03:28:13;;;;;;;35.35;32.83;;;;;;;;;;5030692;28;20541;-54
2024/01/19 03:30:38;;;;;;;30.27;28.58;;;;;;;;;;5033445;28;20041;-54
2024/01/19 03:33:04;;;;;;;34.00;31.42;;;;;;;;;;5030960;28;20112;-55
2024/01/19 03:35:29;;;;;;;32.45;30.60;;;;;;;;;;5033564;28;20056;-52
2024/01/19 03:37:55;;;;;;;33.65;31.73;;;;;;;;;;5030049;28;20091;-54
2024/01/19 03:40:20;;;;;;;36.13;33.78;;;;;;;;;;5032345;28;20069;-53
2024/01/19 03:42:46;;;;;;;32.35;30.60;;;;;;;;;;5034362;28;20033;-55
2024/01/19 03:45:11;;;;;;;33.25;31.40;;;;;;;;;;5017713;28;20048;-53
2024/01/19 03:47:36;;;;;;;33.00;31.13;;;;;;;;;;5034356;28;20033;-53
2024/01/19 03:50:05;;;;;;;31.48;29.77;;;;;;;;;;5035957;28;20108;-53
2024/01/19 03:52:31;;;;;;;34.33;32.33;;;;;;;;;;5036631;28;20206;-50
2024/01/19 03:54:57;;;;;;;34.45;32.28;;;;;;;;;;5033442;28;20037;-49
2024/01/19 03:57:22;;;;;;;33.28;31.42;;;;;;;;;;5035708;28;20047;-52
2024/01/19 03:59:47;;;;;;;34.85;32.45;;;;;;;;;;5030606;28;20025;-52
2024/01/19 04:02:13;;;;;;;33.83;30.80;;;;;;;;;;5031652;28;20040;-54
2024/01/19 04:04:38;;;;;;;34.63;32.42;;;;;;;;;;5032805;28;20037;-49
2024/01/19 04:07:03;;;;;;;36.92;34.42;;;;;;;;;;5039441;28;20040;-50
2024/01/19 04:09:29;;;;;;;33.67;31.48;;;;;;;;;;5036822;28;20358;-50
2024/01/19 04:11:54;;;;;;;35.88;33.78;;;;;;;;;;5033272;28;20459;-52
2024/01/19 04:14:19;;;;;;;33.92;31.98;;;;;;;;;;5034041;28;20389;-51
2024/01/19 04:16:45;;;;;;;31.73;29.92;;;;;;;;;;5033385;28;20040;-52
2024/01/19 04:19:10;;;;;;;32.33;30.23;;;;;;;;;;5033137;28;20037;-51
2024/01/19 04:21:35;;;;;;;30.42;28.45;;;;;;;;;;5034328;28;20217;-51
2024/01/19 04:24:02;;;;;;;32.17;30.27;;;;;;;;;;5036700;28;20717;-50
2024/01/19 04:26:30;;;;;;;33.15;30.83;;;;;;;;;;5035051;28;20051;-51
2024/01/19 04:28:55;;;;;;;29.60;28.00;;;;;;;;;;5036471;28;20826;-53
2024/01/19 04:31:21;;;;;;;32.92;31.08;;;;;;;;;;5029003;28;20033;-51
2024/01/19 04:33:46;;;;;;;31.80;29.92;;;;;;;;;;5036137;28;20370;-54
2024/01/19 04:36:12;;;;;;;33.90;31.90;;;;;;;;;;5033426;28;20194;-54
2024/01/19 04:38:38;;;;;;;34.45;32.50;;;;;;;;;;5033226;28;20041;-52
2024/01/19 04:41:03;;;;;;;30.05;28.27;;;;;;;;;;5033114;28;20585;-52
2024/01/19 04:43:29;;;;;;;34.42;32.15;;;;;;;;;;5036397;28;20102;-53
2024/01/19 04:45:54;;;;;;;32.85;30.50;;;;;;;;;;5031696;28;20029;-50
2024/01/19 04:48:19;;;;;;;31.65;29.83;;;;;;;;;;5031874;28;20095;-53
2024/01/19 04:50:45;;;;;;;29.15;27.45;;;;;;;;;;5035361;28;20102;-51
2024/01/19 04:53:10;;;;;;;30.30;28.60;;;;;;;;;;5036402;28;20548;-53
2024/01/19 04:55:35;;;;;;;34.35;32.35;;;;;;;;;;5036853;28;20033;-52
2024/01/19 04:58:00;;;;;;;31.30;29.30;;;;;;;;;;5034015;28;20041;-51
2024/01/19 05:00:26;;;;;;;27.92;25.98;;;;;;;;;;5036124;28;20033;-55
2024/01/19 05:02:52;;;;;;;28.92;27.33;;;;;;;;;;5033056;28;20033;-51
2024/01/19 05:05:17;;;;;;;29.40;27.73;;;;;;;;;;5034492;28;20946;-53
2024/01/19 05:07:42;;;;;;;28.42;26.83;;;;;;;;;;5035088;28;20037;-53
2024/01/19 05:10:08;;;;;;;32.60;30.60;;;;;;;;;;5031251;28;20426;-54
2024/01/19 05:12:34;;;;;;;29.52;27.83;;;;;;;;;;5034771;28;20033;-52
2024/01/19 05:14:59;;;;;;;32.22;30.23;;;;;;;;;;5031055;28;20124;-53
2024/01/19 05:17:24;;;;;;;29.00;27.40;;;;;;;;;;5033732;28;20505;-54
2024/01/19 05:19:50;;;;;;;31.08;29.23;;;;;;;;;;5033272;28;20087;-51
2024/01/19 05:22:15;;;;;;;28.63;27.00;;;;;;;;;;5032609;28;20026;-53
2024/01/19 05:24:42;;;;;;;30.75;28.85;;;;;;;;;;5032731;28;21083;-54
2024/01/19 05:27:07;;;;;;;31.13;28.90;;;;;;;;;;5030920;28;20363;-54
2024/01/19 05:29:34;;;;;;;32.17;29.85;;;;;;;;;;5031719;28;20036;-53
2024/01/19 05:31:59;;;;;;;28.17;26.67;;;;;;;;;;5033829;28;20021;-52
2024/01/19 05:34:24;;;;;;;29.55;27.88;;;;;;;;;;5032331;28;20017;-50
2024/01/19 05:36:50;;;;;;;28.02;26.33;;;;;;;;;;5031574;28;20787;-53
2024/01/19 05:39:15;;;;;;;28.60;27.00;;;;;;;;;;5029796;28;20111;-54
2024/01/19 05:41:40;;;;;;;27.40;25.85;;;;;;;;;;5032525;28;20903;-53
2024/01/19 05:44:06;;;;;;;29.27;27.58;;;;;;;;;;5035380;28;20037;-52
2024/01/19 05:46:31;;;;;;;30.83;28.45;;;;;;;;;;5034594;28;20553;-53
2024/01/19 05:48:56;;;;;;;28.95;27.15;;;;;;;;;;5037534;28;20044;-53
2024/01/19 05:51:22;;;;;;;33.28;31.02;;;;;;;;;;5035072;28;20036;-52
2024/01/19 05:53:47;;;;;;;33.47;31.23;;;;;;;;;;5035175;28;20064;-56
2024/01/19 05:56:13;;;;;;;31.08;29.08;;;;;;;;;;5032304;28;20049;-53
2024/01/19 05:58:38;;;;;;;31.00;29.20;;;;;;;;;;5034840;28;20519;-52
2024/01/19 06:01:04;;;;;;;29.17;27.58;;;;;;;;;;5032157;28;20037;-55
2024/01/19 06:03:30;;;;;;;34.50;32.20;;;;;;;;;;5030921;28;20142;-53
2024/01/19 06:05:56;;;;;;;37.42;32.72;;;;;;;;;;5035635;28;21291;-54
2024/01/19 06:08:22;;;;;;;31.17;29.27;;;;;;;;;;5031619;28;20510;-52
2024/01/19 06:10:47;;;;;;;32.30;30.23;;;;;;;;;;5033802;28;20033;-55
2024/01/19 06:13:13;;;;;;;32.28;30.38;;;;;;;;;;5032250;28;20040;-54
2024/01/19 06:15:38;;;;;;;31.90;29.85;;;;;;;;;;5032754;28;20759;-55
2024/01/19 06:18:04;;;;;;;32.33;30.42;;;;;;;;;;5032129;28;20021;-54
2024/01/19 06:20:29;;;;;;;33.47;31.48;;;;;;;;;;5033978;28;20033;-55
2024/01/19 06:22:54;;;;;;;29.85;28.02;;;;;;;;;;5032558;28;20087;-51
2024/01/19 06:25:20;;;;;;;31.20;29.17;;;;;;;;;;5033932;28;20091;-53
2024/01/19 06:27:45;;;;;;;30.15;28.35;;;;;;;;;;5032355;28;20030;-53
2024/01/19 06:30:11;;;;;;;33.25;31.20;;;;;;;;;;5035115;28;20043;-54
2024/01/19 06:32:36;;;;;;;31.58;29.67;;;;;;;;;;5031078;28;20094;-54
2024/01/19 06:35:02;;;;;;;30.90;29.10;;;;;;;;;;5033405;28;20636;-50
2024/01/19 06:37:27;;;;;;;32.42;30.50;;;;;;;;;;5031321;28;20041;-52
2024/01/19 06:39:52;;;;;;;30.27;28.58;;;;;;;;;;5030527;28;20037;-54
2024/01/19 06:42:18;;;;;;;32.00;30.13;;;;;;;;;;5029943;28;20049;-54
2024/01/19 06:44:43;;;;;;;31.90;29.83;;;;;;;;;;5028749;28;20037;-55
2024/01/19 06:47:09;;;;;;;32.88;30.95;;;;;;;;;;5029240;28;20525;-54
2024/01/19 06:49:36;;;;;;;33.65;31.75;;;;;;;;;;5033067;28;20039;-56
2024/01/19 06:52:06;;;;;;;33.75;31.73;;;;;;;;;;5031005;28;20115;-55
2024/01/19 06:54:32;;;;;;;37.10;34.72;;;;;;;;;;5029656;28;20055;-53
2024/01/19 06:56:58;;;;;;;32.90;31.05;;;;;;;;;;5028442;28;20061;-53
2024/01/19 06:59:25;;;;;;;34.90;32.92;;;;;;;;;;5034219;28;20045;-50
2024/01/19 07:01:50;;;;;;;36.38;33.03;;;;;;;;;;5027712;28;20039;-55
2024/01/19 07:04:15;;;;;;;32.60;30.63;;;;;;;;;;5033202;28;20057;-54
2024/01/19 07:06:41;;;;;;;31.13;29.23;;;;;;;;;;5031383;28;20088;-55
2024/01/19 07:09:07;;;;;;;32.38;30.48;;;;;;;;;;5025594;28;20599;-55
2024/01/19 07:11:33;;;;;;;34.08;32.08;;;;;;;;;;5023316;28;20034;-55
2024/01/19 07:13:58;;;;;;;50.88;31.17;;;;;;;;;;5031440;28;20499;-53
2024/01/19 07:16:23;;;;;;;32.78;30.52;;;;;;;;;;5031072;28;20112;-49
2024/01/19 07:18:49;;;;;;;30.05;28.02;;;;;;;;;;5034930;28;20060;-54
2024/01/19 07:21:15;;;;;;;33.30;31.08;;;;;;;;;;5037176;28;20047;-50
2024/01/19 07:23:40;;;;;;;32.75;30.40;;;;;;;;;;5034877;28;20355;-53
2024/01/19 07:26:05;;;;;;;33.80;31.75;;;;;;;;;;5034331;28;20037;-54
2024/01/19 07:28:30;;;;;;;33.53;31.40;;;;;;;;;;5033887;28;20029;-51
2024/01/19 07:30:56;;;;;;;32.65;30.75;;;;;;;;;;5033805;28;20033;-53
2024/01/19 07:33:21;;;;;;;33.42;31.38;;;;;;;;;;5037144;28;20321;-52
2024/01/19 07:35:46;;;;;;;32.00;30.15;;;;;;;;;;5037923;28;20336;-51
2024/01/19 07:38:12;;;;;;;33.15;30.92;;;;;;;;;;5034387;28;20028;-55
2024/01/19 07:40:37;;;;;;;35.72;33.47;;;;;;;;;;5036002;28;20029;-56
2024/01/19 07:43:02;;;;;;;31.83;29.92;;;;;;;;;;5037832;28;20021;-54
2024/01/19 07:45:28;;;;;;;36.05;33.45;;;;;;;;;;5033450;28;20548;-52
2024/01/19 07:47:53;;;;;;;31.73;29.98;;;;;;;;;;5036891;28;20191;-52
2024/01/19 07:50:19;;;;;;;29.10;27.45;;;;;;;;;;5037937;28;20366;-55
2024/01/19 07:52:44;;;;;;;31.58;29.50;;;;;;;;;;5034028;28;20465;-54
2024/01/19 07:55:09;;;;;;;32.80;30.75;;;;;;;;;;5036928;28;20033;-54
2024/01/19 07:57:35;;;;;;;34.42;32.00;;;;;;;;;;5035760;28;20041;-52
2024/01/19 08:00:00;;;;;;;28.35;26.70;;;;;;;;;;5036033;28;20239;-53
2024/01/19 08:02:25;;;;;;;34.63;31.60;;;;;;;;;;5034697;28;20041;-51
2024/01/19 08:04:51;;;;;;;30.30;28.63;;;;;;;;;;5033852;28;20509;-51
2024/01/19 08:07:16;;;;;;;30.10;28.33;;;;;;;;;;5036644;28;20029;-56
2024/01/19 08:09:41;;;;;;;28.45;26.90;;;;;;;;;;5032903;28;20332;-55
2024/01/19 08:12:07;;;;;;;33.05;31.05;;;;;;;;;;5036355;28;20034;-54
2024/01/19 08:14:33;;;;;;;31.95;30.05;;;;;;;;;;5034163;28;20106;-55
2024/01/19 08:16:58;;;;;;;31.63;29.35;;;;;;;;;;5033454;28;20748;-55
2024/01/19 08:19:23;;;;;;;31.30;29.50;;;;;;;;;;5034528;28;20351;-56
2024/01/19 08:21:49;;;;;;;31.10;29.00;;;;;;;;;;5030473;28;20489;-55
2024/01/19 08:24:14;;;;;;;31.77;29.92;;;;;;;;;;5033547;28;20198;-56
2024/01/19 08:26:39;;;;;;;31.42;29.50;;;;;;;;;;5029786;28;20025;-55
2024/01/19 08:29:05;;;;;;;27.70;26.20;;;;;;;;;;5034056;28;20033;-56
2024/01/19 08:31:30;;;;;;;30.42;28.63;;;;;;;;;;5028690;28;20076;-58
2024/01/19 08:33:56;;;;;;;30.20;28.33;;;;;;;;;;5032363;28;20037;-56
2024/01/19 08:36:24;;;;;;;31.35;29.50;;;;;;;;;;5035557;28;20094;-55
2024/01/19 08:38:53;;;;;;;28.98;27.27;;;;;;;;;;5018416;28;20052;-58
2024/01/19 08:41:18;;;;;;;30.60;28.92;;;;;;;;;;5035638;28;20041;-53
2024/01/19 08:43:44;;;;;;;27.08;25.58;;;;;;;;;;5032175;28;20371;-58
2024/01/19 08:46:09;;;;;;;28.40;26.67;;;;;;;;;;5034028;28;20072;-55
2024/01/19 08:48:34;;;;;;;30.70;28.65;;;;;;;;;;5034060;28;20089;-55
2024/01/19 08:51:01;;;;;;;28.38;26.40;;;;;;;;;;5033677;28;20045;-56
2024/01/19 08:53:27;;;;;;;24.50;23.13;;;;;;;;;;5035523;28;20148;-53
2024/01/19 08:55:52;;;;;;;27.40;25.80;;;;;;;;;;5031992;28;20029;-56
2024/01/19 08:58:18;;;;;;;28.58;26.88;;;;;;;;;;5035385;28;20086;-54
2024/01/19 09:00:43;;;;;;;25.20;23.80;;;;;;;;;;5030357;28;20367;-56
2024/01/19 09:03:08;;;;;;;30.33;28.23;;;;;;;;;;5033249;28;20037;-54
2024/01/19 09:05:34;;;;;;;29.27;27.45;;;;;;;;;;5033279;28;20363;-57
2024/01/19 09:08:00;;;;;;;29.10;27.40;;;;;;;;;;5034193;28;20077;-53
2024/01/19 09:10:25;;;;;;;29.60;27.70;;;;;;;;;;5035201;28;20064;-56
2024/01/19 09:12:51;;;;;;;30.42;27.42;;;;;;;;;;5032502;28;20040;-55
2024/01/19 09:15:16;;;;;;;29.58;27.42;;;;;;;;;;5032562;28;20025;-53
2024/01/19 09:17:42;;;;;;;29.00;27.30;;;;;;;;;;5033444;28;20422;-56
2024/01/19 09:20:07;;;;;;;28.95;27.33;;;;;;;;;;5032722;28;20112;-54
2024/01/19 09:22:33;;;;;;;30.52;28.70;;;;;;;;;;5030973;28;20048;-57
2024/01/19 09:24:58;;;;;;;29.50;27.60;;;;;;;;;;5028162;28;20684;-52
2024/01/19 09:27:23;;;;;;;29.65;27.90;;;;;;;;;;5032442;28;20644;-53
2024/01/19 09:29:49;;;;;;;30.08;28.35;;;;;;;;;;5032624;28;20837;-56
2024/01/19 09:32:16;;;;;;;30.73;28.98;;;;;;;;;;5030562;28;20109;-57
2024/01/19 09:34:44;;;;;;;32.83;31.02;;;;;;;;;;5025759;28;20033;-57
2024/01/19 09:37:09;;;;;;;32.35;30.55;;;;;;;;;;5014929;28;20064;-52
2024/01/19 09:39:34;;;;;;;32.38;30.50;;;;;;;;;;5030680;28;20057;-52
2024/01/19 09:42:03;;;;;;;30.65;28.85;;;;;;;;;;5025445;28;20366;-54
2024/01/19 09:44:36;;;;;;;32.33;29.27;;;;;;;;;;5029782;28;20045;-54
2024/01/19 09:47:17;;;;;;;28.92;27.33;;;;;;;;;;5032773;28;20068;-54
2024/01/19 09:50:03;;;;;;;31.10;29.20;;;;;;;;;;5034252;28;20043;-53
2024/01/19 09:52:57;;;;;;;28.75;27.10;;;;;;;;;;5032765;28;20037;-55
2024/01/19 09:55:25;;;;;;;29.90;28.20;;;;;;;;;;5027204;28;20041;-55
2024/01/19 09:57:50;;;;;;;29.77;27.98;;;;;;;;;;5033132;28;20374;-53
2024/01/19 10:00:17;;;;;;;32.08;30.27;;;;;;;;;;5025371;28;20029;-52
2024/01/19 10:02:48;;;;;;;30.50;28.60;;;;;;;;;;5032012;28;20032;-55
2024/01/19 10:05:15;;;;;;;29.42;27.83;;;;;;;;;;5033228;28;20487;-53
2024/01/19 10:07:44;;;;;;;31.95;30.15;;;;;;;;;;5030814;28;20072;-54
2024/01/19 10:10:11;;;;;;;31.63;29.85;;;;;;;;;;5033311;28;20059;-56
2024/01/19 10:12:37;;;;;;;29.92;28.27;;;;;;;;;;5028575;28;20041;-61
2024/01/19 10:15:13;;;;;;;30.73;28.92;;;;;;;;;;5030476;28;20044;-61
2024/01/19 10:17:39;;;;;;;31.25;29.42;;;;;;;;;;5031511;28;20042;-61
2024/01/19 10:20:06;;;;;;;34.50;32.33;;;;;;;;;;5032876;28;20566;-61
2024/01/19 10:22:32;;;;;;;31.60;29.73;;;;;;;;;;5031803;28;20037;-61
2024/01/19 10:25:00;;;;;;;33.22;31.42;;;;;;;;;;5029386;28;20128;-61
2024/01/19 10:27:39;;;;;;;30.38;28.60;;;;;;;;;;5033979;28;20120;-61
2024/01/19 10:30:13;;;;;;;29.35;27.58;;;;;;;;;;5027839;28;20042;-61
2024/01/19 10:32:39;;;;;;;28.75;27.10;;;;;;;;;;5027079;28;20036;-61
2024/01/19 10:35:21;;;;;;;31.85;29.95;;;;;;;;;;5033156;28;20041;-61
2024/01/19 10:37:48;;;;;;;31.77;29.98;;;;;;;;;;5031324;28;20120;-61
2024/01/19 10:40:24;;;;;;;30.83;29.05;;;;;;;;;;5033756;28;20041;-61
2024/01/19 10:42:56;;;;;;;31.15;29.25;;;;;;;;;;5030918;28;20079;-61
2024/01/19 10:45:27;;;;;;;31.83;29.60;;;;;;;;;;5030362;28;20046;-61
2024/01/19 10:47:54;;;;;;;;;;;;;;;;;;5034125;28;20045;-61
2024/01/19 10:50:20;;;;;;;31.45;29.70;;;;;;;;;;5033615;28;20701;-61
2024/01/19 10:52:53;;;;;;;32.92;30.95;;;;;;;;;;5031567;28;20087;-61
2024/01/19 10:55:24;;;;;;;34.33;32.42;;;;;;;;;;5032628;28;20029;-61
2024/01/19 10:58:13;;;;;;;36.30;34.30;;;;;;;;;;5032777;28;20029;-61
2024/01/19 11:00:39;;;;;;;32.22;30.30;;;;;;;;;;5029682;28;20382;-61
2024/01/19 11:03:04;;;;;;;35.65;33.55;;;;;;;;;;5034784;28;20025;-62
2024/01/19 11:05:31;;;;;;;34.15;32.25;;;;;;;;;;5030214;28;20036;-61
2024/01/19 11:07:58;;;;;;;35.47;33.28;;;;;;;;;;5030581;28;20120;-62
2024/01/19 11:10:25;;;;;;;34.42;32.45;;;;;;;;;;5034268;28;20033;-62
2024/01/19 11:12:59;;;;;;;36.63;34.13;;;;;;;;;;5028038;28;20037;-61
2024/01/19 11:15:35;;;;;;;35.75;33.65;;;;;;;;;;5028039;28;21245;-61
2024/01/19 11:18:04;;;;;;;33.78;31.85;;;;;;;;;;5032700;28;20039;-61
2024/01/19 11:20:31;;;;;;;34.13;32.15;;;;;;;;;;5024099;28;20037;-62
2024/01/19 11:22:56;;;;;;;34.05;32.22;;;;;;;;;;5032403;28;20037;-61
2024/01/19 11:25:43;;;;;;;35.88;33.90;;;;;;;;;;5029546;28;20034;-61
2024/01/19 11:28:33;;;;;;;36.72;34.33;;;;;;;;;;5030451;28;20045;-61
2024/01/19 11:31:25;;;;;;;34.25;32.45;;;;;;;;;;5032417;28;20034;-62
2024/01/19 11:33:53;;;;;;;36.38;34.05;;;;;;;;;;5026238;28;20052;-62
2024/01/19 11:36:38;;;;;;;37.35;35.35;;;;;;;;;;5030869;28;20026;-55
2024/01/19 11:39:05;;;;;;;38.13;36.05;;;;;;;;;;5029241;28;20041;-56
2024/01/19 11:41:33;;;;;;;34.70;32.85;;;;;;;;;;5033881;28;20130;-53
2024/01/19 11:44:06;;;;;;;36.00;34.05;;;;;;;;;;5032281;28;20033;-55
2024/01/19 11:46:51;;;;;;;36.97;35.00;;;;;;;;;;5030684;28;20518;-53
2024/01/19 11:49:29;;;;;;;37.08;34.97;;;;;;;;;;5034123;28;20445;-52
2024/01/19 11:51:55;;;;;;;35.97;34.03;;;;;;;;;;5030205;28;20084;-53
2024/01/19 11:54:33;;;;;;;36.25;34.35;;;;;;;;;;5027383;28;20045;-54
2024/01/19 11:57:18;;;;;;;35.85;33.92;;;;;;;;;;5031621;28;20033;-54
2024/01/19 11:59:44;;;;;;;36.03;34.03;;;;;;;;;;5021455;28;20037;-52
2024/01/19 12:02:23;;;;;;;36.45;34.35;;;;;;;;;;5030432;28;20380;-55
2024/01/19 12:04:49;;;;;;;36.70;34.63;;;;;;;;;;5033921;28;20049;-53
2024/01/19 12:07:18;;;;;;;38.42;36.15;;;;;;;;;;5036138;28;20426;-50
2024/01/19 12:09:44;;;;;;;38.78;36.58;;;;;;;;;;5036263;28;20037;-55
2024/01/19 12:12:09;;;;;;;41.42;39.13;;;;;;;;;;5029236;28;20527;-50
2024/01/19 12:14:35;;;;;;;42.60;40.15;;;;;;;;;;5028693;28;20058;-52
2024/01/19 12:17:00;;;;;;;40.55;38.28;;;;;;;;;;5035043;28;20025;-53
2024/01/19 12:19:25;;;;;;;41.10;38.65;;;;;;;;;;5030309;28;20264;-53
2024/01/19 12:21:55;;;;;;;37.95;35.85;;;;;;;;;;5034087;28;20043;-54
2024/01/19 12:24:20;;;;;;;39.55;37.40;;;;;;;;;;5039194;28;20132;-53
2024/01/19 12:26:50;;;;;;;41.35;39.00;;;;;;;;;;5034436;28;20124;-53
2024/01/19 12:29:27;;;;;;;43.10;40.58;;;;;;;;;;5032362;28;20029;-55
2024/01/19 12:32:10;;;;;;;43.00;40.60;;;;;;;;;;5032193;28;20061;-54
2024/01/19 12:34:36;;;;;;;45.22;42.30;;;;;;;;;;5033792;28;20040;-55
2024/01/19 12:37:01;;;;;;;45.97;43.55;;;;;;;;;;5034008;28;20025;-50
2024/01/19 12:39:27;;;;;;;44.58;42.03;;;;;;;;;;5034660;28;20712;-53
2024/01/19 12:42:00;;;;;;;43.22;40.67;;;;;;;;;;5030662;28;20037;-49
2024/01/19 12:44:25;;;;;;;43.83;41.33;;;;;;;;;;5035409;28;20478;-50
2024/01/19 12:46:51;;;;;;;43.30;40.95;;;;;;;;;;5033820;28;20041;-50
2024/01/19 12:49:16;;;;;;;42.33;39.83;;;;;;;;;;5030757;28;20630;-51
2024/01/19 12:51:42;;;;;;;44.15;41.85;;;;;;;;;;5032244;28;20366;-49
2024/01/19 12:54:08;;;;;;;43.22;40.83;;;;;;;;;;5029975;28;20167;-55
2024/01/19 12:56:34;;;;;;;42.25;39.90;;;;;;;;;;5034568;28;20413;-53
2024/01/19 12:59:15;;;;;;;40.97;38.78;;;;;;;;;;5034475;28;20036;-54
2024/01/19 13:01:42;;;;;;;41.40;39.20;;;;;;;;;;5032323;28;20040;-51
2024/01/19 13:04:07;;;;;;;45.28;42.70;;;;;;;;;;5033213;28;20538;-51
2024/01/19 13:06:39;;;;;;;43.45;41.13;;;;;;;;;;5029764;28;20120;-55
2024/01/19 13:09:04;;;;;;;42.75;40.42;;;;;;;;;;5030249;28;20356;-54
2024/01/19 13:11:29;;;;;;;44.55;41.70;;;;;;;;;;5028393;28;20030;-55
2024/01/19 13:13:59;;;;;;;46.00;43.53;;;;;;;;;;5033047;28;20356;-54
2024/01/19 13:16:24;;;;;;;43.40;41.00;;;;;;;;;;5033223;28;20072;-55
2024/01/19 13:18:59;;;;;;;43.05;40.75;;;;;;;;;;5033026;28;20455;-54
2024/01/19 13:21:25;;;;;;;44.95;42.33;;;;;;;;;;5032669;28;20041;-52
2024/01/19 13:23:50;;;;;;;40.45;38.03;;;;;;;;;;5032018;28;20056;-54
2024/01/19 13:26:18;;;;;;;41.40;39.05;;;;;;;;;;5034770;28;20116;-52
2024/01/19 13:28:43;;;;;;;39.97;37.67;;;;;;;;;;5034689;28;20257;-54
2024/01/19 13:31:09;;;;;;;41.67;39.38;;;;;;;;;;5032440;28;20086;-51
2024/01/19 13:33:34;;;;;;;37.72;35.63;;;;;;;;;;5033628;28;20102;-52
2024/01/19 13:35:59;;;;;;;40.45;38.25;;;;;;;;;;5035512;28;20442;-52
2024/01/19 13:38:25;;;;;;;44.53;41.95;;;;;;;;;;5033630;28;20025;-56
2024/01/19 13:40:50;;;;;;;44.13;41.75;;;;;;;;;;5017087;28;20040;-52
2024/01/19 13:43:16;;;;;;;44.85;42.40;;;;;;;;;;5035078;28;20044;-53
2024/01/19 13:45:41;;;;;;;39.30;37.00;;;;;;;;;;5032976;28;20064;-52
2024/01/19 13:48:07;;;;;;;42.42;40.13;;;;;;;;;;5034772;28;20032;-54
2024/01/19 13:50:32;;;;;;;40.92;38.55;;;;;;;;;;5031713;28;20220;-50
2024/01/19 13:52:59;;;;;;;38.08;35.90;;;;;;;;;;5029316;28;20025;-53
2024/01/19 13:55:24;;;;;;;38.22;35.97;;;;;;;;;;5035087;28;20124;-54
2024/01/19 13:57:49;;;;;;;36.20;34.10;;;;;;;;;;5031798;28;20116;-53
2024/01/19 14:00:15;;;;;;;41.83;39.35;;;;;;;;;;5031515;28;20765;-54
2024/01/19 14:02:40;;;;;;;38.92;36.75;;;;;;;;;;5034809;28;20094;-53
2024/01/19 14:05:07;;;;;;;39.25;36.75;;;;;;;;;;5030082;28;20037;-52
2024/01/19 14:07:33;;;;;;;37.40;35.40;;;;;;;;;;5027382;28;20128;-53
2024/01/19 14:09:59;;;;;;;40.05;37.83;;;;;;;;;;5030184;28;20120;-49
2024/01/19 14:12:24;;;;;;;41.53;39.05;;;;;;;;;;5034802;28;20032;-51
2024/01/19 14:14:50;;;;;;;41.30;38.97;;;;;;;;;;5030849;28;20938;-54
2024/01/19 14:17:15;;;;;;;45.90;43.50;;;;;;;;;;5025279;28;20044;-55